sensor_id;sensor_type;location;lat;lon;timestamp;temperature;humidity
11426;DHT22;5769;47.998;7.788;2022-12-29T00:01:22;17.60;64.00
11426;DHT22;5769;47.998;7.788;2022-12-29T00:03:49;17.60;64.00
11426;DHT22;5769;47.998;7.788;2022-12-29T00:06:15;17.60;64.00
11426;DHT22;5769;47.998;7.788;2022-12-29T00:08:42;17.60;64.00
11426;DHT22;5769;47.998;7.788;2022-12-29T00:11:09;17.60;64.00
11426;DHT22;5769;47.998;7.788;2022-12-29T00:13:35;17.60;64.00
11426;DHT22;5769;47.998;7.788;2022-12-29T00:16:19;17.60;64.00
11426;DHT22;5769;47.998;7.788;2022-12-29T00:18:47;17.60;64.00
11426;DHT22;5769;47.998;7.788;2022-12-29T00:21:14;17.60;64.00
11426;DHT22;5769;47.998;7.788;2022-12-29T00:23:59;17.60;64.00
11426;DHT22;5769;47.998;7.788;2022-12-29T00:26:43;17.60;64.00
11426;DHT22;5769;47.998;7.788;2022-12-29T00:29:27;17.60;64.00
11426;DHT22;5769;47.998;7.788;2022-12-29T00:32:12;17.60;64.00
11426;DHT22;5769;47.998;7.788;2022-12-29T00:34:57;17.60;64.00
11426;DHT22;5769;47.998;7.788;2022-12-29T00:37:38;17.60;64.00
11426;DHT22;5769;47.998;7.788;2022-12-29T00:40:24;17.60;64.00
11426;DHT22;5769;47.998;7.788;2022-12-29T00:43:08;17.60;64.00
11426;DHT22;5769;47.998;7.788;2022-12-29T00:45:52;17.60;64.00
11426;DHT22;5769;47.998;7.788;2022-12-29T00:48:19;17.60;64.00
11426;DHT22;5769;47.998;7.788;2022-12-29T00:51:07;17.60;64.00
11426;DHT22;5769;47.998;7.788;2022-12-29T00:53:33;17.60;64.00
11426;DHT22;5769;47.998;7.788;2022-12-29T00:55:59;17.60;64.00
11426;DHT22;5769;47.998;7.788;2022-12-29T00:58:26;17.60;64.00
11426;DHT22;5769;47.998;7.788;2022-12-29T01:01:00;17.60;64.00
11426;DHT22;5769;47.998;7.788;2022-12-29T01:03:26;17.60;64.00
11426;DHT22;5769;47.998;7.788;2022-12-29T01:05:53;17.60;64.40
11426;DHT22;5769;47.998;7.788;2022-12-29T01:08:21;17.60;64.00
11426;DHT22;5769;47.998;7.788;2022-12-29T01:10:57;17.60;64.00
11426;DHT22;5769;47.998;7.788;2022-12-29T01:13:22;17.60;64.00
11426;DHT22;5769;47.998;7.788;2022-12-29T01:15:49;17.60;64.00
11426;DHT22;5769;47.998;7.788;2022-12-29T01:18:16;17.60;64.00
11426;DHT22;5769;47.998;7.788;2022-12-29T01:20:42;17.60;64.00
11426;DHT22;5769;47.998;7.788;2022-12-29T01:23:09;17.60;64.00
11426;DHT22;5769;47.998;7.788;2022-12-29T01:25:36;17.60;64.00
11426;DHT22;5769;47.998;7.788;2022-12-29T01:28:03;17.60;64.00
11426;DHT22;5769;47.998;7.788;2022-12-29T01:30:30;17.60;64.70
11426;DHT22;5769;47.998;7.788;2022-12-29T01:32:56;17.60;64.00
11426;DHT22;5769;47.998;7.788;2022-12-29T01:35:23;17.60;64.00
11426;DHT22;5769;47.998;7.788;2022-12-29T01:37:49;17.60;64.00
11426;DHT22;5769;47.998;7.788;2022-12-29T01:40:16;17.60;64.00
11426;DHT22;5769;47.998;7.788;2022-12-29T01:42:44;17.60;64.00
11426;DHT22;5769;47.998;7.788;2022-12-29T01:45:11;17.60;64.00
11426;DHT22;5769;47.998;7.788;2022-12-29T01:47:39;17.60;64.00
11426;DHT22;5769;47.998;7.788;2022-12-29T01:50:08;17.60;64.00
11426;DHT22;5769;47.998;7.788;2022-12-29T01:52:36;17.60;64.00
11426;DHT22;5769;47.998;7.788;2022-12-29T01:55:03;17.60;64.00
11426;DHT22;5769;47.998;7.788;2022-12-29T01:57:31;17.60;64.00
11426;DHT22;5769;47.998;7.788;2022-12-29T02:00:02;17.60;64.00
11426;DHT22;5769;47.998;7.788;2022-12-29T02:02:30;17.60;64.00
11426;DHT22;5769;47.998;7.788;2022-12-29T02:04:57;17.60;64.00
11426;DHT22;5769;47.998;7.788;2022-12-29T02:07:24;17.60;64.00
11426;DHT22;5769;47.998;7.788;2022-12-29T02:09:52;17.60;64.00
11426;DHT22;5769;47.998;7.788;2022-12-29T02:12:20;17.60;64.00
11426;DHT22;5769;47.998;7.788;2022-12-29T02:14:47;17.60;64.00
11426;DHT22;5769;47.998;7.788;2022-12-29T02:17:16;17.60;64.00
11426;DHT22;5769;47.998;7.788;2022-12-29T02:22:34;17.60;64.10
11426;DHT22;5769;47.998;7.788;2022-12-29T02:25:14;17.60;64.00
11426;DHT22;5769;47.998;7.788;2022-12-29T02:27:50;17.60;64.00
11426;DHT22;5769;47.998;7.788;2022-12-29T02:30:34;17.60;64.00
11426;DHT22;5769;47.998;7.788;2022-12-29T02:33:04;17.60;64.00
11426;DHT22;5769;47.998;7.788;2022-12-29T02:35:35;17.60;64.00
11426;DHT22;5769;47.998;7.788;2022-12-29T02:38:05;17.60;64.00
11426;DHT22;5769;47.998;7.788;2022-12-29T02:40:37;17.60;64.00
11426;DHT22;5769;47.998;7.788;2022-12-29T02:43:11;17.60;64.00
11426;DHT22;5769;47.998;7.788;2022-12-29T02:45:43;17.60;64.00
11426;DHT22;5769;47.998;7.788;2022-12-29T02:48:15;17.60;64.00
11426;DHT22;5769;47.998;7.788;2022-12-29T02:50:43;17.60;64.00
11426;DHT22;5769;47.998;7.788;2022-12-29T02:53:11;17.60;64.00
11426;DHT22;5769;47.998;7.788;2022-12-29T02:55:39;17.60;64.00
11426;DHT22;5769;47.998;7.788;2022-12-29T02:58:12;17.60;64.10
11426;DHT22;5769;47.998;7.788;2022-12-29T03:00:41;17.60;64.10
11426;DHT22;5769;47.998;7.788;2022-12-29T03:03:16;17.60;64.00
11426;DHT22;5769;47.998;7.788;2022-12-29T03:06:06;17.60;64.00
11426;DHT22;5769;47.998;7.788;2022-12-29T03:08:39;17.60;64.00
11426;DHT22;5769;47.998;7.788;2022-12-29T03:11:09;17.60;64.80
11426;DHT22;5769;47.998;7.788;2022-12-29T03:13:59;17.60;64.00
11426;DHT22;5769;47.998;7.788;2022-12-29T03:16:44;17.60;64.00
11426;DHT22;5769;47.998;7.788;2022-12-29T03:19:14;17.60;64.00
11426;DHT22;5769;47.998;7.788;2022-12-29T03:21:43;17.60;64.10
11426;DHT22;5769;47.998;7.788;2022-12-29T03:24:28;17.60;64.00
11426;DHT22;5769;47.998;7.788;2022-12-29T03:26:56;17.50;64.10
11426;DHT22;5769;47.998;7.788;2022-12-29T03:29:24;17.60;64.10
11426;DHT22;5769;47.998;7.788;2022-12-29T03:31:52;17.60;64.00
11426;DHT22;5769;47.998;7.788;2022-12-29T03:34:21;17.60;64.10
11426;DHT22;5769;47.998;7.788;2022-12-29T03:36:48;17.60;64.00
11426;DHT22;5769;47.998;7.788;2022-12-29T03:39:16;17.60;64.00
11426;DHT22;5769;47.998;7.788;2022-12-29T03:41:44;17.60;64.00
11426;DHT22;5769;47.998;7.788;2022-12-29T03:44:12;17.60;64.00
11426;DHT22;5769;47.998;7.788;2022-12-29T03:46:39;17.50;64.00
11426;DHT22;5769;47.998;7.788;2022-12-29T03:49:05;17.60;64.10
11426;DHT22;5769;47.998;7.788;2022-12-29T03:51:33;17.60;64.00
11426;DHT22;5769;47.998;7.788;2022-12-29T03:54:00;17.60;64.00
11426;DHT22;5769;47.998;7.788;2022-12-29T03:56:26;17.60;64.00
11426;DHT22;5769;47.998;7.788;2022-12-29T03:58:53;17.60;64.00
11426;DHT22;5769;47.998;7.788;2022-12-29T04:01:19;17.60;64.00
11426;DHT22;5769;47.998;7.788;2022-12-29T04:03:46;17.60;64.00
11426;DHT22;5769;47.998;7.788;2022-12-29T04:06:12;17.60;64.10
11426;DHT22;5769;47.998;7.788;2022-12-29T04:08:40;17.60;64.00
11426;DHT22;5769;47.998;7.788;2022-12-29T04:11:06;17.60;64.00
11426;DHT22;5769;47.998;7.788;2022-12-29T04:13:33;17.60;64.00
11426;DHT22;5769;47.998;7.788;2022-12-29T04:15:59;17.60;64.10
11426;DHT22;5769;47.998;7.788;2022-12-29T04:18:26;17.60;64.00
11426;DHT22;5769;47.998;7.788;2022-12-29T04:20:52;17.60;64.00
11426;DHT22;5769;47.998;7.788;2022-12-29T04:23:29;17.60;64.00
11426;DHT22;5769;47.998;7.788;2022-12-29T04:25:57;17.60;64.00
11426;DHT22;5769;47.998;7.788;2022-12-29T04:28:24;17.60;64.10
11426;DHT22;5769;47.998;7.788;2022-12-29T04:30:50;17.60;64.10
11426;DHT22;5769;47.998;7.788;2022-12-29T04:33:17;17.60;64.00
11426;DHT22;5769;47.998;7.788;2022-12-29T04:35:44;17.60;64.10
11426;DHT22;5769;47.998;7.788;2022-12-29T04:38:10;17.60;64.10
11426;DHT22;5769;47.998;7.788;2022-12-29T04:40:37;17.50;64.00
11426;DHT22;5769;47.998;7.788;2022-12-29T04:43:05;17.60;64.00
11426;DHT22;5769;47.998;7.788;2022-12-29T04:45:31;17.60;64.00
11426;DHT22;5769;47.998;7.788;2022-12-29T04:47:58;17.60;64.10
11426;DHT22;5769;47.998;7.788;2022-12-29T04:50:25;17.60;64.00
11426;DHT22;5769;47.998;7.788;2022-12-29T04:52:52;17.60;64.10
11426;DHT22;5769;47.998;7.788;2022-12-29T04:55:18;17.60;64.00
11426;DHT22;5769;47.998;7.788;2022-12-29T04:57:45;17.60;64.00
11426;DHT22;5769;47.998;7.788;2022-12-29T05:00:14;17.60;64.00
11426;DHT22;5769;47.998;7.788;2022-12-29T05:02:40;17.60;64.10
11426;DHT22;5769;47.998;7.788;2022-12-29T05:05:07;17.60;64.10
11426;DHT22;5769;47.998;7.788;2022-12-29T05:07:34;17.60;64.10
11426;DHT22;5769;47.998;7.788;2022-12-29T05:10:00;17.60;64.10
11426;DHT22;5769;47.998;7.788;2022-12-29T05:12:29;17.60;64.00
11426;DHT22;5769;47.998;7.788;2022-12-29T05:14:55;17.60;64.00
11426;DHT22;5769;47.998;7.788;2022-12-29T05:17:23;17.60;64.00
11426;DHT22;5769;47.998;7.788;2022-12-29T05:19:49;17.60;64.10
11426;DHT22;5769;47.998;7.788;2022-12-29T05:22:16;17.60;64.00
11426;DHT22;5769;47.998;7.788;2022-12-29T05:24:42;17.60;64.00
11426;DHT22;5769;47.998;7.788;2022-12-29T05:27:09;17.60;64.10
11426;DHT22;5769;47.998;7.788;2022-12-29T05:29:35;17.60;64.00
11426;DHT22;5769;47.998;7.788;2022-12-29T05:32:02;17.60;64.00
11426;DHT22;5769;47.998;7.788;2022-12-29T05:34:30;17.60;64.00
11426;DHT22;5769;47.998;7.788;2022-12-29T05:36:56;17.50;64.00
11426;DHT22;5769;47.998;7.788;2022-12-29T05:39:23;17.60;64.00
11426;DHT22;5769;47.998;7.788;2022-12-29T05:41:49;17.60;64.10
11426;DHT22;5769;47.998;7.788;2022-12-29T05:44:16;17.60;64.00
11426;DHT22;5769;47.998;7.788;2022-12-29T05:46:42;17.60;64.00
11426;DHT22;5769;47.998;7.788;2022-12-29T05:49:09;17.60;64.00
11426;DHT22;5769;47.998;7.788;2022-12-29T05:51:37;17.60;64.10
11426;DHT22;5769;47.998;7.788;2022-12-29T05:54:03;17.50;64.00
11426;DHT22;5769;47.998;7.788;2022-12-29T05:56:30;17.60;64.00
11426;DHT22;5769;47.998;7.788;2022-12-29T05:58:56;17.60;64.00
11426;DHT22;5769;47.998;7.788;2022-12-29T06:01:23;17.60;64.10
11426;DHT22;5769;47.998;7.788;2022-12-29T06:03:49;17.60;64.10
11426;DHT22;5769;47.998;7.788;2022-12-29T06:06:16;17.50;64.00
11426;DHT22;5769;47.998;7.788;2022-12-29T06:08:44;17.50;64.00
11426;DHT22;5769;47.998;7.788;2022-12-29T06:11:10;17.60;64.00
11426;DHT22;5769;47.998;7.788;2022-12-29T06:13:37;17.60;64.10
11426;DHT22;5769;47.998;7.788;2022-12-29T06:16:04;17.60;64.00
11426;DHT22;5769;47.998;7.788;2022-12-29T06:18:30;17.60;64.10
11426;DHT22;5769;47.998;7.788;2022-12-29T06:20:59;17.60;64.00
11426;DHT22;5769;47.998;7.788;2022-12-29T06:23:25;17.60;64.10
11426;DHT22;5769;47.998;7.788;2022-12-29T06:25:53;17.60;64.00
11426;DHT22;5769;47.998;7.788;2022-12-29T06:28:20;17.60;64.10
11426;DHT22;5769;47.998;7.788;2022-12-29T06:30:46;17.60;64.10
11426;DHT22;5769;47.998;7.788;2022-12-29T06:33:13;17.60;64.10
11426;DHT22;5769;47.998;7.788;2022-12-29T06:35:41;17.60;64.00
11426;DHT22;5769;47.998;7.788;2022-12-29T06:38:08;17.60;64.10
11426;DHT22;5769;47.998;7.788;2022-12-29T06:40:34;17.60;64.00
11426;DHT22;5769;47.998;7.788;2022-12-29T06:43:02;17.60;64.10
11426;DHT22;5769;47.998;7.788;2022-12-29T06:45:28;17.60;64.10
11426;DHT22;5769;47.998;7.788;2022-12-29T06:47:55;17.50;64.00
11426;DHT22;5769;47.998;7.788;2022-12-29T06:50:21;17.60;64.10
11426;DHT22;5769;47.998;7.788;2022-12-29T06:52:48;17.60;64.10
11426;DHT22;5769;47.998;7.788;2022-12-29T06:55:14;17.60;64.10
11426;DHT22;5769;47.998;7.788;2022-12-29T06:57:41;17.60;64.00
11426;DHT22;5769;47.998;7.788;2022-12-29T07:00:10;17.60;64.10
11426;DHT22;5769;47.998;7.788;2022-12-29T07:02:36;17.60;64.10
11426;DHT22;5769;47.998;7.788;2022-12-29T07:05:03;17.60;64.10
11426;DHT22;5769;47.998;7.788;2022-12-29T07:07:29;17.60;64.10
11426;DHT22;5769;47.998;7.788;2022-12-29T07:09:56;17.60;64.10
11426;DHT22;5769;47.998;7.788;2022-12-29T07:12:22;17.60;64.10
11426;DHT22;5769;47.998;7.788;2022-12-29T07:14:49;17.60;64.10
11426;DHT22;5769;47.998;7.788;2022-12-29T07:17:17;17.60;64.10
11426;DHT22;5769;47.998;7.788;2022-12-29T07:19:43;17.60;64.10
11426;DHT22;5769;47.998;7.788;2022-12-29T07:22:10;17.60;64.10
11426;DHT22;5769;47.998;7.788;2022-12-29T07:24:36;17.60;64.10
11426;DHT22;5769;47.998;7.788;2022-12-29T07:27:03;17.50;64.10
11426;DHT22;5769;47.998;7.788;2022-12-29T07:29:30;17.60;64.10
11426;DHT22;5769;47.998;7.788;2022-12-29T07:31:56;17.60;64.10
11426;DHT22;5769;47.998;7.788;2022-12-29T07:34:24;17.60;64.10
11426;DHT22;5769;47.998;7.788;2022-12-29T07:36:51;17.50;64.10
11426;DHT22;5769;47.998;7.788;2022-12-29T07:39:17;17.60;64.10
11426;DHT22;5769;47.998;7.788;2022-12-29T07:41:44;17.50;64.10
11426;DHT22;5769;47.998;7.788;2022-12-29T07:44:10;17.60;64.10
11426;DHT22;5769;47.998;7.788;2022-12-29T07:46:37;17.50;64.10
11426;DHT22;5769;47.998;7.788;2022-12-29T07:49:03;17.60;64.10
11426;DHT22;5769;47.998;7.788;2022-12-29T07:51:31;17.50;64.10
11426;DHT22;5769;47.998;7.788;2022-12-29T07:53:58;17.60;64.10
11426;DHT22;5769;47.998;7.788;2022-12-29T07:56:25;17.60;64.10
11426;DHT22;5769;47.998;7.788;2022-12-29T07:58:52;17.60;64.10
11426;DHT22;5769;47.998;7.788;2022-12-29T08:01:18;17.50;64.10
11426;DHT22;5769;47.998;7.788;2022-12-29T08:03:46;17.60;64.10
11426;DHT22;5769;47.998;7.788;2022-12-29T08:06:13;17.50;64.10
11426;DHT22;5769;47.998;7.788;2022-12-29T08:08:40;17.60;64.10
11426;DHT22;5769;47.998;7.788;2022-12-29T08:11:07;17.50;64.10
11426;DHT22;5769;47.998;7.788;2022-12-29T08:13:33;17.50;64.10
11426;DHT22;5769;47.998;7.788;2022-12-29T08:16:00;17.50;64.10
11426;DHT22;5769;47.998;7.788;2022-12-29T08:18:26;17.60;64.20
11426;DHT22;5769;47.998;7.788;2022-12-29T08:20:53;17.50;64.10
11426;DHT22;5769;47.998;7.788;2022-12-29T08:23:19;17.50;64.10
11426;DHT22;5769;47.998;7.788;2022-12-29T08:25:55;17.50;64.10
11426;DHT22;5769;47.998;7.788;2022-12-29T08:28:22;17.50;64.10
11426;DHT22;5769;47.998;7.788;2022-12-29T08:30:49;17.50;64.10
11426;DHT22;5769;47.998;7.788;2022-12-29T08:33:15;17.50;64.10
11426;DHT22;5769;47.998;7.788;2022-12-29T08:35:42;17.50;64.10
11426;DHT22;5769;47.998;7.788;2022-12-29T08:38:08;17.50;64.10
11426;DHT22;5769;47.998;7.788;2022-12-29T08:40:36;17.60;64.10
11426;DHT22;5769;47.998;7.788;2022-12-29T08:43:04;17.50;64.10
11426;DHT22;5769;47.998;7.788;2022-12-29T08:45:30;17.50;64.10
11426;DHT22;5769;47.998;7.788;2022-12-29T08:47:57;17.60;64.20
11426;DHT22;5769;47.998;7.788;2022-12-29T08:50:24;17.50;64.10
11426;DHT22;5769;47.998;7.788;2022-12-29T08:52:50;17.50;64.10
11426;DHT22;5769;47.998;7.788;2022-12-29T08:55:17;17.50;64.20
11426;DHT22;5769;47.998;7.788;2022-12-29T08:57:43;17.50;64.10
11426;DHT22;5769;47.998;7.788;2022-12-29T09:00:12;17.50;64.10
11426;DHT22;5769;47.998;7.788;2022-12-29T09:02:40;17.50;64.10
11426;DHT22;5769;47.998;7.788;2022-12-29T09:05:07;17.50;64.10
11426;DHT22;5769;47.998;7.788;2022-12-29T09:07:33;17.50;64.10
11426;DHT22;5769;47.998;7.788;2022-12-29T09:10:00;17.50;64.10
11426;DHT22;5769;47.998;7.788;2022-12-29T09:12:26;17.50;64.10
11426;DHT22;5769;47.998;7.788;2022-12-29T09:14:53;17.50;64.10
11426;DHT22;5769;47.998;7.788;2022-12-29T09:17:21;17.50;64.10
11426;DHT22;5769;47.998;7.788;2022-12-29T09:20:05;17.50;64.10
11426;DHT22;5769;47.998;7.788;2022-12-29T09:22:32;17.50;64.20
11426;DHT22;5769;47.998;7.788;2022-12-29T09:24:58;17.50;64.10
11426;DHT22;5769;47.998;7.788;2022-12-29T09:27:25;17.50;64.10
11426;DHT22;5769;47.998;7.788;2022-12-29T09:29:51;17.50;64.10
11426;DHT22;5769;47.998;7.788;2022-12-29T09:32:18;17.50;64.10
11426;DHT22;5769;47.998;7.788;2022-12-29T09:34:45;17.50;64.20
11426;DHT22;5769;47.998;7.788;2022-12-29T09:37:12;17.50;64.10
11426;DHT22;5769;47.998;7.788;2022-12-29T09:39:38;17.50;64.20
11426;DHT22;5769;47.998;7.788;2022-12-29T09:42:06;17.50;64.10
11426;DHT22;5769;47.998;7.788;2022-12-29T09:44:39;17.50;64.10
11426;DHT22;5769;47.998;7.788;2022-12-29T09:47:09;17.50;64.10
11426;DHT22;5769;47.998;7.788;2022-12-29T09:49:39;17.50;64.10
11426;DHT22;5769;47.998;7.788;2022-12-29T09:52:11;17.50;64.10
11426;DHT22;5769;47.998;7.788;2022-12-29T09:54:41;17.50;64.20
11426;DHT22;5769;47.998;7.788;2022-12-29T09:57:18;17.50;64.20
11426;DHT22;5769;47.998;7.788;2022-12-29T09:59:46;17.50;64.20
11426;DHT22;5769;47.998;7.788;2022-12-29T10:02:16;17.50;64.10
11426;DHT22;5769;47.998;7.788;2022-12-29T10:04:45;17.50;64.20
11426;DHT22;5769;47.998;7.788;2022-12-29T10:07:17;17.50;64.10
11426;DHT22;5769;47.998;7.788;2022-12-29T10:09:49;17.50;64.20
11426;DHT22;5769;47.998;7.788;2022-12-29T10:12:22;17.50;64.20
11426;DHT22;5769;47.998;7.788;2022-12-29T10:14:55;17.50;64.20
11426;DHT22;5769;47.998;7.788;2022-12-29T10:17:26;17.50;64.20
11426;DHT22;5769;47.998;7.788;2022-12-29T10:19:57;17.50;64.10
11426;DHT22;5769;47.998;7.788;2022-12-29T10:22:35;17.50;64.20
11426;DHT22;5769;47.998;7.788;2022-12-29T10:25:08;17.50;64.20
11426;DHT22;5769;47.998;7.788;2022-12-29T10:27:37;17.50;64.10
11426;DHT22;5769;47.998;7.788;2022-12-29T10:30:04;17.50;64.80
11426;DHT22;5769;47.998;7.788;2022-12-29T10:32:32;17.50;64.20
11426;DHT22;5769;47.998;7.788;2022-12-29T10:35:01;17.50;64.20
11426;DHT22;5769;47.998;7.788;2022-12-29T10:37:31;17.50;64.20
11426;DHT22;5769;47.998;7.788;2022-12-29T10:40:00;17.50;64.10
11426;DHT22;5769;47.998;7.788;2022-12-29T10:42:29;17.50;64.10
11426;DHT22;5769;47.998;7.788;2022-12-29T10:44:59;17.50;64.10
11426;DHT22;5769;47.998;7.788;2022-12-29T10:47:27;17.50;64.20
11426;DHT22;5769;47.998;7.788;2022-12-29T10:49:54;17.50;64.10
11426;DHT22;5769;47.998;7.788;2022-12-29T10:52:21;17.50;64.20
11426;DHT22;5769;47.998;7.788;2022-12-29T10:54:49;17.50;64.10
11426;DHT22;5769;47.998;7.788;2022-12-29T10:57:20;17.50;64.10
11426;DHT22;5769;47.998;7.788;2022-12-29T10:59:50;17.50;64.10
11426;DHT22;5769;47.998;7.788;2022-12-29T11:02:32;17.50;64.20
11426;DHT22;5769;47.998;7.788;2022-12-29T11:05:03;17.50;64.20
11426;DHT22;5769;47.998;7.788;2022-12-29T11:07:34;17.50;64.20
11426;DHT22;5769;47.998;7.788;2022-12-29T11:10:16;17.50;64.20
11426;DHT22;5769;47.998;7.788;2022-12-29T11:12:55;17.50;64.20
11426;DHT22;5769;47.998;7.788;2022-12-29T11:15:22;17.50;64.20
11426;DHT22;5769;47.998;7.788;2022-12-29T11:17:51;17.50;64.10
11426;DHT22;5769;47.998;7.788;2022-12-29T11:20:24;17.50;64.20
11426;DHT22;5769;47.998;7.788;2022-12-29T11:22:52;17.60;64.20
11426;DHT22;5769;47.998;7.788;2022-12-29T11:25:19;17.50;64.20
11426;DHT22;5769;47.998;7.788;2022-12-29T11:27:55;17.50;64.20
11426;DHT22;5769;47.998;7.788;2022-12-29T11:30:22;17.50;64.10
11426;DHT22;5769;47.998;7.788;2022-12-29T11:32:50;17.50;64.90
11426;DHT22;5769;47.998;7.788;2022-12-29T11:35:19;17.50;64.20
11426;DHT22;5769;47.998;7.788;2022-12-29T11:37:55;17.50;64.20
11426;DHT22;5769;47.998;7.788;2022-12-29T11:40:22;17.50;64.20
11426;DHT22;5769;47.998;7.788;2022-12-29T11:42:50;17.50;64.20
11426;DHT22;5769;47.998;7.788;2022-12-29T11:45:19;17.50;64.20
11426;DHT22;5769;47.998;7.788;2022-12-29T11:47:47;17.60;64.40
11426;DHT22;5769;47.998;7.788;2022-12-29T11:50:16;17.70;64.50
11426;DHT22;5769;47.998;7.788;2022-12-29T11:52:43;17.70;64.50
11426;DHT22;5769;47.998;7.788;2022-12-29T11:55:16;17.80;64.70
11426;DHT22;5769;47.998;7.788;2022-12-29T11:57:44;17.80;64.70
11426;DHT22;5769;47.998;7.788;2022-12-29T12:00:14;17.80;64.80
11426;DHT22;5769;47.998;7.788;2022-12-29T12:02:47;17.80;64.70
11426;DHT22;5769;47.998;7.788;2022-12-29T12:05:17;17.90;64.80
11426;DHT22;5769;47.998;7.788;2022-12-29T12:07:45;17.80;64.80
11426;DHT22;5769;47.998;7.788;2022-12-29T12:10:20;17.80;64.90
11426;DHT22;5769;47.998;7.788;2022-12-29T12:12:50;17.80;64.80
11426;DHT22;5769;47.998;7.788;2022-12-29T12:15:19;17.80;64.60
11426;DHT22;5769;47.998;7.788;2022-12-29T12:17:50;17.80;64.70
11426;DHT22;5769;47.998;7.788;2022-12-29T12:20:18;17.70;64.70
11426;DHT22;5769;47.998;7.788;2022-12-29T12:22:49;17.70;64.90
11426;DHT22;5769;47.998;7.788;2022-12-29T12:25:18;17.80;65.10
11426;DHT22;5769;47.998;7.788;2022-12-29T12:27:48;17.80;65.10
11426;DHT22;5769;47.998;7.788;2022-12-29T12:30:18;17.90;65.20
11426;DHT22;5769;47.998;7.788;2022-12-29T12:32:46;17.90;65.10
11426;DHT22;5769;47.998;7.788;2022-12-29T12:35:18;17.80;65.10
11426;DHT22;5769;47.998;7.788;2022-12-29T12:37:59;17.80;64.60
11426;DHT22;5769;47.998;7.788;2022-12-29T12:46:01;17.80;65.20
11426;DHT22;5769;47.998;7.788;2022-12-29T12:48:38;17.80;65.20
11426;DHT22;5769;47.998;7.788;2022-12-29T12:51:11;17.70;65.20
11426;DHT22;5769;47.998;7.788;2022-12-29T12:53:44;17.70;65.90
11426;DHT22;5769;47.998;7.788;2022-12-29T12:56:27;17.70;65.20
11426;DHT22;5769;47.998;7.788;2022-12-29T12:58:58;17.70;65.20
11426;DHT22;5769;47.998;7.788;2022-12-29T13:01:35;17.70;65.20
11426;DHT22;5769;47.998;7.788;2022-12-29T13:04:23;17.70;65.20
11426;DHT22;5769;47.998;7.788;2022-12-29T13:06:56;17.70;65.20
11426;DHT22;5769;47.998;7.788;2022-12-29T13:09:31;17.70;65.20
11426;DHT22;5769;47.998;7.788;2022-12-29T13:12:06;17.70;65.10
11426;DHT22;5769;47.998;7.788;2022-12-29T13:14:37;17.70;65.10
11426;DHT22;5769;47.998;7.788;2022-12-29T13:17:10;17.70;65.20
11426;DHT22;5769;47.998;7.788;2022-12-29T13:19:40;17.70;65.10
11426;DHT22;5769;47.998;7.788;2022-12-29T13:22:11;17.70;65.10
11426;DHT22;5769;47.998;7.788;2022-12-29T13:24:46;17.70;65.10
11426;DHT22;5769;47.998;7.788;2022-12-29T13:27:15;17.70;65.10
11426;DHT22;5769;47.998;7.788;2022-12-29T13:29:45;17.70;65.10
11426;DHT22;5769;47.998;7.788;2022-12-29T13:32:22;17.70;65.10
11426;DHT22;5769;47.998;7.788;2022-12-29T13:34:56;17.70;65.10
11426;DHT22;5769;47.998;7.788;2022-12-29T13:37:31;17.70;65.10
11426;DHT22;5769;47.998;7.788;2022-12-29T13:40:01;17.70;65.10
11426;DHT22;5769;47.998;7.788;2022-12-29T13:42:29;17.70;65.10
11426;DHT22;5769;47.998;7.788;2022-12-29T13:44:57;17.60;65.00
11426;DHT22;5769;47.998;7.788;2022-12-29T13:47:26;17.60;65.00
11426;DHT22;5769;47.998;7.788;2022-12-29T13:49:54;17.70;65.10
11426;DHT22;5769;47.998;7.788;2022-12-29T13:52:24;17.70;65.10
11426;DHT22;5769;47.998;7.788;2022-12-29T13:55:00;17.70;65.20
11426;DHT22;5769;47.998;7.788;2022-12-29T13:57:35;17.70;65.10
11426;DHT22;5769;47.998;7.788;2022-12-29T14:00:11;17.60;65.00
11426;DHT22;5769;47.998;7.788;2022-12-29T14:02:42;17.70;65.10
11426;DHT22;5769;47.998;7.788;2022-12-29T14:05:26;17.60;65.00
11426;DHT22;5769;47.998;7.788;2022-12-29T14:08:13;17.70;65.20
11426;DHT22;5769;47.998;7.788;2022-12-29T14:10:46;17.80;65.40
11426;DHT22;5769;47.998;7.788;2022-12-29T14:13:14;17.90;65.40
11426;DHT22;5769;47.998;7.788;2022-12-29T14:15:42;18.10;64.90
11426;DHT22;5769;47.998;7.788;2022-12-29T14:18:13;18.30;64.60
11426;DHT22;5769;47.998;7.788;2022-12-29T14:20:53;18.50;64.10
11426;DHT22;5769;47.998;7.788;2022-12-29T14:23:36;18.60;63.70
11426;DHT22;5769;47.998;7.788;2022-12-29T14:26:12;18.70;63.50
11426;DHT22;5769;47.998;7.788;2022-12-29T14:28:39;18.70;63.40
11426;DHT22;5769;47.998;7.788;2022-12-29T14:36:41;19.00;63.40
11426;DHT22;5769;47.998;7.788;2022-12-29T14:42:00;19.10;63.30
11426;DHT22;5769;47.998;7.788;2022-12-29T14:44:27;19.20;63.00
11426;DHT22;5769;47.998;7.788;2022-12-29T14:49:52;19.30;63.00
11426;DHT22;5769;47.998;7.788;2022-12-29T14:52:21;19.30;63.00
11426;DHT22;5769;47.998;7.788;2022-12-29T14:54:50;19.30;63.00
11426;DHT22;5769;47.998;7.788;2022-12-29T14:57:21;19.30;63.10
11426;DHT22;5769;47.998;7.788;2022-12-29T14:59:54;19.30;63.10
11426;DHT22;5769;47.998;7.788;2022-12-29T15:02:30;19.30;63.20
11426;DHT22;5769;47.998;7.788;2022-12-29T15:04:59;19.30;63.30
11426;DHT22;5769;47.998;7.788;2022-12-29T15:07:26;19.30;63.30
11426;DHT22;5769;47.998;7.788;2022-12-29T15:09:54;19.30;63.40
11426;DHT22;5769;47.998;7.788;2022-12-29T15:12:28;19.30;63.40
11426;DHT22;5769;47.998;7.788;2022-12-29T15:14:58;19.30;63.40
11426;DHT22;5769;47.998;7.788;2022-12-29T15:17:26;19.30;63.50
11426;DHT22;5769;47.998;7.788;2022-12-29T15:19:53;19.30;63.50
11426;DHT22;5769;47.998;7.788;2022-12-29T15:22:24;19.20;63.50
11426;DHT22;5769;47.998;7.788;2022-12-29T15:24:51;19.20;63.50
11426;DHT22;5769;47.998;7.788;2022-12-29T15:27:20;19.20;63.70
11426;DHT22;5769;47.998;7.788;2022-12-29T15:29:52;19.20;63.80
11426;DHT22;5769;47.998;7.788;2022-12-29T15:32:23;19.20;63.80
11426;DHT22;5769;47.998;7.788;2022-12-29T15:34:50;19.20;63.80
11426;DHT22;5769;47.998;7.788;2022-12-29T15:37:21;19.20;63.90
11426;DHT22;5769;47.998;7.788;2022-12-29T15:39:48;19.10;63.90
11426;DHT22;5769;47.998;7.788;2022-12-29T15:42:19;19.10;63.90
11426;DHT22;5769;47.998;7.788;2022-12-29T15:44:50;19.10;64.00
11426;DHT22;5769;47.998;7.788;2022-12-29T15:47:21;19.10;64.00
11426;DHT22;5769;47.998;7.788;2022-12-29T15:49:49;19.10;64.10
11426;DHT22;5769;47.998;7.788;2022-12-29T15:52:17;19.10;64.10
11426;DHT22;5769;47.998;7.788;2022-12-29T15:54:47;19.10;64.20
11426;DHT22;5769;47.998;7.788;2022-12-29T15:57:17;19.10;64.30
11426;DHT22;5769;47.998;7.788;2022-12-29T15:59:49;19.10;64.30
11426;DHT22;5769;47.998;7.788;2022-12-29T16:02:16;19.10;64.40
11426;DHT22;5769;47.998;7.788;2022-12-29T16:04:43;19.10;64.40
11426;DHT22;5769;47.998;7.788;2022-12-29T16:07:22;19.00;64.40
11426;DHT22;5769;47.998;7.788;2022-12-29T16:09:53;19.00;64.50
11426;DHT22;5769;47.998;7.788;2022-12-29T16:12:21;19.00;64.50
11426;DHT22;5769;47.998;7.788;2022-12-29T16:14:52;19.10;64.60
11426;DHT22;5769;47.998;7.788;2022-12-29T16:17:26;19.00;64.60
11426;DHT22;5769;47.998;7.788;2022-12-29T16:19:56;19.00;64.60